sensor_id;sensor_type;location;lat;lon;timestamp;temperature;humidity
74657;DHT22;63185;45.642;13.764;2023-03-12T00:00:30;11.80;44.90
74657;DHT22;63185;45.642;13.764;2023-03-12T00:02:56;11.80;44.80
74657;DHT22;63185;45.642;13.764;2023-03-12T00:05:22;11.70;44.50
74657;DHT22;63185;45.642;13.764;2023-03-12T00:07:50;11.70;44.50
74657;DHT22;63185;45.642;13.764;2023-03-12T00:10:16;11.70;44.70
74657;DHT22;63185;45.642;13.764;2023-03-12T00:12:42;11.70;44.70
74657;DHT22;63185;45.642;13.764;2023-03-12T00:15:09;11.70;43.90
74657;DHT22;63185;45.642;13.764;2023-03-12T00:17:37;11.80;43.60
74657;DHT22;63185;45.642;13.764;2023-03-12T00:20:04;11.80;43.50
74657;DHT22;63185;45.642;13.764;2023-03-12T00:22:31;11.80;43.70
74657;DHT22;63185;45.642;13.764;2023-03-12T00:24:57;11.80;43.20
74657;DHT22;63185;45.642;13.764;2023-03-12T00:27:24;11.80;42.90
74657;DHT22;63185;45.642;13.764;2023-03-12T00:29:50;11.70;42.90
74657;DHT22;63185;45.642;13.764;2023-03-12T00:32:15;11.70;42.50
74657;DHT22;63185;45.642;13.764;2023-03-12T00:34:41;11.70;41.90
74657;DHT22;63185;45.642;13.764;2023-03-12T00:37:07;11.70;41.80
74657;DHT22;63185;45.642;13.764;2023-03-12T00:39:33;11.60;41.90
74657;DHT22;63185;45.642;13.764;2023-03-12T00:42:00;11.50;41.60
74657;DHT22;63185;45.642;13.764;2023-03-12T00:44:26;11.60;41.30
74657;DHT22;63185;45.642;13.764;2023-03-12T00:46:52;11.60;41.20
74657;DHT22;63185;45.642;13.764;2023-03-12T00:49:18;11.40;41.50
74657;DHT22;63185;45.642;13.764;2023-03-12T00:51:43;11.40;41.40
74657;DHT22;63185;45.642;13.764;2023-03-12T00:54:09;11.40;42.10
74657;DHT22;63185;45.642;13.764;2023-03-12T00:56:35;11.30;41.60
74657;DHT22;63185;45.642;13.764;2023-03-12T00:59:01;11.30;43.10
74657;DHT22;63185;45.642;13.764;2023-03-12T01:01:27;11.20;43.50
74657;DHT22;63185;45.642;13.764;2023-03-12T01:03:53;11.30;44.80
74657;DHT22;63185;45.642;13.764;2023-03-12T01:06:20;11.20;45.30
74657;DHT22;63185;45.642;13.764;2023-03-12T01:08:46;11.00;44.40
74657;DHT22;63185;45.642;13.764;2023-03-12T01:11:13;10.90;44.40
74657;DHT22;63185;45.642;13.764;2023-03-12T01:13:39;10.90;44.30
74657;DHT22;63185;45.642;13.764;2023-03-12T01:16:05;10.90;43.00
74657;DHT22;63185;45.642;13.764;2023-03-12T01:18:31;10.90;43.30
74657;DHT22;63185;45.642;13.764;2023-03-12T01:20:57;10.80;42.50
74657;DHT22;63185;45.642;13.764;2023-03-12T01:23:23;10.80;42.10
74657;DHT22;63185;45.642;13.764;2023-03-12T01:25:49;10.80;42.50
74657;DHT22;63185;45.642;13.764;2023-03-12T01:28:17;10.80;42.30
74657;DHT22;63185;45.642;13.764;2023-03-12T01:30:43;10.80;41.80
74657;DHT22;63185;45.642;13.764;2023-03-12T01:33:09;10.70;41.60
74657;DHT22;63185;45.642;13.764;2023-03-12T01:35:39;10.60;41.30
74657;DHT22;63185;45.642;13.764;2023-03-12T01:38:06;10.60;40.90
74657;DHT22;63185;45.642;13.764;2023-03-12T01:40:34;10.60;40.80
74657;DHT22;63185;45.642;13.764;2023-03-12T01:43:35;10.50;40.70
74657;DHT22;63185;45.642;13.764;2023-03-12T01:46:32;10.60;40.50
74657;DHT22;63185;45.642;13.764;2023-03-12T01:52:19;10.60;39.60
74657;DHT22;63185;45.642;13.764;2023-03-12T01:55:06;10.60;39.50
74657;DHT22;63185;45.642;13.764;2023-03-12T02:00:08;10.60;39.60
74657;DHT22;63185;45.642;13.764;2023-03-12T02:02:37;10.60;39.00
74657;DHT22;63185;45.642;13.764;2023-03-12T02:07:36;10.50;39.50
74657;DHT22;63185;45.642;13.764;2023-03-12T02:10:03;10.40;39.20
74657;DHT22;63185;45.642;13.764;2023-03-12T02:12:30;10.40;39.10
74657;DHT22;63185;45.642;13.764;2023-03-12T02:14:56;10.50;39.40
74657;DHT22;63185;45.642;13.764;2023-03-12T02:17:21;10.40;39.40
74657;DHT22;63185;45.642;13.764;2023-03-12T02:19:54;10.40;39.50
74657;DHT22;63185;45.642;13.764;2023-03-12T02:22:22;10.50;39.20
74657;DHT22;63185;45.642;13.764;2023-03-12T02:24:57;10.50;39.50
74657;DHT22;63185;45.642;13.764;2023-03-12T02:27:31;10.50;39.30
74657;DHT22;63185;45.642;13.764;2023-03-12T02:29:59;10.40;39.10
74657;DHT22;63185;45.642;13.764;2023-03-12T02:32:27;10.40;39.40
74657;DHT22;63185;45.642;13.764;2023-03-12T02:34:55;10.40;39.00
74657;DHT22;63185;45.642;13.764;2023-03-12T02:37:21;10.30;39.50
74657;DHT22;63185;45.642;13.764;2023-03-12T02:39:54;10.30;39.50
74657;DHT22;63185;45.642;13.764;2023-03-12T02:42:22;10.20;39.40
74657;DHT22;63185;45.642;13.764;2023-03-12T02:44:48;10.20;39.50
74657;DHT22;63185;45.642;13.764;2023-03-12T02:47:14;10.10;39.30
74657;DHT22;63185;45.642;13.764;2023-03-12T02:49:40;10.00;39.10
74657;DHT22;63185;45.642;13.764;2023-03-12T02:52:05;10.00;39.40
74657;DHT22;63185;45.642;13.764;2023-03-12T02:54:31;10.00;39.50
74657;DHT22;63185;45.642;13.764;2023-03-12T02:56:57;9.90;39.50
74657;DHT22;63185;45.642;13.764;2023-03-12T02:59:23;9.90;39.90
74657;DHT22;63185;45.642;13.764;2023-03-12T03:01:56;9.90;39.70
74657;DHT22;63185;45.642;13.764;2023-03-12T03:04:24;9.90;39.60
74657;DHT22;63185;45.642;13.764;2023-03-12T03:06:50;9.90;39.60
74657;DHT22;63185;45.642;13.764;2023-03-12T03:09:15;9.80;39.80
74657;DHT22;63185;45.642;13.764;2023-03-12T03:11:41;9.80;39.90
74657;DHT22;63185;45.642;13.764;2023-03-12T03:14:07;9.90;40.40
74657;DHT22;63185;45.642;13.764;2023-03-12T03:16:35;9.80;39.60
74657;DHT22;63185;45.642;13.764;2023-03-12T03:19:01;9.70;40.10
74657;DHT22;63185;45.642;13.764;2023-03-12T03:21:26;9.80;40.00
74657;DHT22;63185;45.642;13.764;2023-03-12T03:23:52;9.70;40.00
74657;DHT22;63185;45.642;13.764;2023-03-12T03:26:22;9.70;40.20
74657;DHT22;63185;45.642;13.764;2023-03-12T03:28:48;9.70;40.20
74657;DHT22;63185;45.642;13.764;2023-03-12T03:31:15;9.70;40.20
74657;DHT22;63185;45.642;13.764;2023-03-12T03:33:41;9.60;40.20
74657;DHT22;63185;45.642;13.764;2023-03-12T03:36:08;9.60;40.30
74657;DHT22;63185;45.642;13.764;2023-03-12T03:38:34;9.60;40.00
74657;DHT22;63185;45.642;13.764;2023-03-12T03:41:01;9.60;40.30
74657;DHT22;63185;45.642;13.764;2023-03-12T03:43:26;9.60;40.20
74657;DHT22;63185;45.642;13.764;2023-03-12T03:45:57;9.60;39.90
74657;DHT22;63185;45.642;13.764;2023-03-12T03:48:23;9.60;40.10
74657;DHT22;63185;45.642;13.764;2023-03-12T03:50:48;9.40;39.90
74657;DHT22;63185;45.642;13.764;2023-03-12T03:53:14;9.30;40.40
74657;DHT22;63185;45.642;13.764;2023-03-12T03:55:40;9.30;40.30
74657;DHT22;63185;45.642;13.764;2023-03-12T03:58:06;9.40;40.10
74657;DHT22;63185;45.642;13.764;2023-03-12T04:00:32;9.40;40.20
74657;DHT22;63185;45.642;13.764;2023-03-12T04:03:00;9.30;40.10
74657;DHT22;63185;45.642;13.764;2023-03-12T04:05:25;9.30;40.20
74657;DHT22;63185;45.642;13.764;2023-03-12T04:07:52;9.30;40.20
74657;DHT22;63185;45.642;13.764;2023-03-12T04:10:23;9.20;40.20
74657;DHT22;63185;45.642;13.764;2023-03-12T04:12:49;9.20;40.60
74657;DHT22;63185;45.642;13.764;2023-03-12T04:15:15;9.20;40.30
74657;DHT22;63185;45.642;13.764;2023-03-12T04:17:41;9.10;40.60
74657;DHT22;63185;45.642;13.764;2023-03-12T04:20:07;9.10;40.30
74657;DHT22;63185;45.642;13.764;2023-03-12T04:22:35;9.10;40.50
74657;DHT22;63185;45.642;13.764;2023-03-12T04:25:03;9.10;40.40
74657;DHT22;63185;45.642;13.764;2023-03-12T04:27:29;9.00;40.50
74657;DHT22;63185;45.642;13.764;2023-03-12T04:29:55;9.10;40.60
74657;DHT22;63185;45.642;13.764;2023-03-12T04:32:20;9.10;40.60
74657;DHT22;63185;45.642;13.764;2023-03-12T04:34:46;9.10;40.50
74657;DHT22;63185;45.642;13.764;2023-03-12T04:37:12;9.00;40.40
74657;DHT22;63185;45.642;13.764;2023-03-12T04:39:41;9.00;40.60
74657;DHT22;63185;45.642;13.764;2023-03-12T04:42:08;9.00;40.50
74657;DHT22;63185;45.642;13.764;2023-03-12T04:44:35;8.90;40.70
74657;DHT22;63185;45.642;13.764;2023-03-12T04:47:00;8.90;40.80
74657;DHT22;63185;45.642;13.764;2023-03-12T04:49:26;9.00;41.00
74657;DHT22;63185;45.642;13.764;2023-03-12T04:51:52;8.90;40.40
74657;DHT22;63185;45.642;13.764;2023-03-12T04:54:18;8.90;40.80
74657;DHT22;63185;45.642;13.764;2023-03-12T04:56:46;8.80;40.80
74657;DHT22;63185;45.642;13.764;2023-03-12T04:59:12;8.90;40.80
74657;DHT22;63185;45.642;13.764;2023-03-12T05:01:38;8.70;40.50
74657;DHT22;63185;45.642;13.764;2023-03-12T05:04:04;8.70;40.80
74657;DHT22;63185;45.642;13.764;2023-03-12T05:06:30;8.70;41.50
74657;DHT22;63185;45.642;13.764;2023-03-12T05:08:56;8.70;40.80
74657;DHT22;63185;45.642;13.764;2023-03-12T05:11:22;8.80;40.90
74657;DHT22;63185;45.642;13.764;2023-03-12T05:13:48;8.80;41.10
74657;DHT22;63185;45.642;13.764;2023-03-12T05:16:15;8.80;41.00
74657;DHT22;63185;45.642;13.764;2023-03-12T05:18:41;8.80;40.90
74657;DHT22;63185;45.642;13.764;2023-03-12T05:21:11;8.90;40.60
74657;DHT22;63185;45.642;13.764;2023-03-12T05:23:38;8.80;40.70
74657;DHT22;63185;45.642;13.764;2023-03-12T05:26:21;8.80;40.80
74657;DHT22;63185;45.642;13.764;2023-03-12T05:28:47;8.90;40.90
74657;DHT22;63185;45.642;13.764;2023-03-12T05:31:14;8.90;40.50
74657;DHT22;63185;45.642;13.764;2023-03-12T05:33:40;9.00;40.80
74657;DHT22;63185;45.642;13.764;2023-03-12T05:36:06;9.00;40.10
74657;DHT22;63185;45.642;13.764;2023-03-12T05:38:32;9.00;40.20
74657;DHT22;63185;45.642;13.764;2023-03-12T05:40:58;9.10;40.20
74657;DHT22;63185;45.642;13.764;2023-03-12T05:43:25;9.10;40.10
74657;DHT22;63185;45.642;13.764;2023-03-12T05:45:51;9.10;39.70
74657;DHT22;63185;45.642;13.764;2023-03-12T05:48:18;9.10;39.90
74657;DHT22;63185;45.642;13.764;2023-03-12T05:50:43;9.10;40.00
74657;DHT22;63185;45.642;13.764;2023-03-12T05:53:10;9.10;39.90
74657;DHT22;63185;45.642;13.764;2023-03-12T05:55:37;9.10;39.70
74657;DHT22;63185;45.642;13.764;2023-03-12T05:58:04;9.10;39.80
74657;DHT22;63185;45.642;13.764;2023-03-12T06:00:31;9.20;39.50
74657;DHT22;63185;45.642;13.764;2023-03-12T06:02:57;9.10;39.80
74657;DHT22;63185;45.642;13.764;2023-03-12T06:05:23;9.10;39.70
74657;DHT22;63185;45.642;13.764;2023-03-12T06:07:48;9.10;40.20
74657;DHT22;63185;45.642;13.764;2023-03-12T06:10:14;9.10;39.70
74657;DHT22;63185;45.642;13.764;2023-03-12T06:12:40;9.10;39.70
74657;DHT22;63185;45.642;13.764;2023-03-12T06:15:06;9.10;39.80
74657;DHT22;63185;45.642;13.764;2023-03-12T06:17:32;9.10;39.70
74657;DHT22;63185;45.642;13.764;2023-03-12T06:19:58;9.10;39.70
74657;DHT22;63185;45.642;13.764;2023-03-12T06:22:24;9.20;39.70
74657;DHT22;63185;45.642;13.764;2023-03-12T06:24:50;9.20;39.20
74657;DHT22;63185;45.642;13.764;2023-03-12T06:27:16;9.20;39.80
74657;DHT22;63185;45.642;13.764;2023-03-12T06:29:42;9.20;39.80
74657;DHT22;63185;45.642;13.764;2023-03-12T06:32:08;9.10;39.30
74657;DHT22;63185;45.642;13.764;2023-03-12T06:34:33;9.10;39.80
74657;DHT22;63185;45.642;13.764;2023-03-12T06:36:59;9.20;39.40
74657;DHT22;63185;45.642;13.764;2023-03-12T06:39:26;9.10;39.20
74657;DHT22;63185;45.642;13.764;2023-03-12T06:41:51;9.20;39.50
74657;DHT22;63185;45.642;13.764;2023-03-12T06:44:17;9.20;39.40
74657;DHT22;63185;45.642;13.764;2023-03-12T06:46:43;9.20;39.40
74657;DHT22;63185;45.642;13.764;2023-03-12T06:49:09;9.20;39.50
74657;DHT22;63185;45.642;13.764;2023-03-12T06:51:35;9.30;39.00
74657;DHT22;63185;45.642;13.764;2023-03-12T06:54:01;9.40;39.20
74657;DHT22;63185;45.642;13.764;2023-03-12T06:56:28;9.50;38.40
74657;DHT22;63185;45.642;13.764;2023-03-12T06:58:54;9.50;38.60
74657;DHT22;63185;45.642;13.764;2023-03-12T07:01:20;9.60;38.50
74657;DHT22;63185;45.642;13.764;2023-03-12T07:03:46;9.60;38.40
74657;DHT22;63185;45.642;13.764;2023-03-12T07:06:16;9.60;38.40
74657;DHT22;63185;45.642;13.764;2023-03-12T07:08:43;9.50;38.40
74657;DHT22;63185;45.642;13.764;2023-03-12T07:11:09;9.60;38.50
74657;DHT22;63185;45.642;13.764;2023-03-12T07:13:35;9.60;38.70
74657;DHT22;63185;45.642;13.764;2023-03-12T07:16:01;9.60;38.40
74657;DHT22;63185;45.642;13.764;2023-03-12T07:18:28;9.70;38.40
74657;DHT22;63185;45.642;13.764;2023-03-12T07:20:54;9.70;38.50
74657;DHT22;63185;45.642;13.764;2023-03-12T07:23:20;9.80;37.80
74657;DHT22;63185;45.642;13.764;2023-03-12T07:25:46;9.90;38.00
74657;DHT22;63185;45.642;13.764;2023-03-12T07:28:13;10.00;38.30
74657;DHT22;63185;45.642;13.764;2023-03-12T07:30:39;10.20;38.30
74657;DHT22;63185;45.642;13.764;2023-03-12T07:33:11;10.20;37.60
74657;DHT22;63185;45.642;13.764;2023-03-12T07:35:37;10.30;37.90
74657;DHT22;63185;45.642;13.764;2023-03-12T07:38:04;10.40;37.00
74657;DHT22;63185;45.642;13.764;2023-03-12T07:40:30;10.60;37.40
74657;DHT22;63185;45.642;13.764;2023-03-12T07:42:56;10.60;37.30
74657;DHT22;63185;45.642;13.764;2023-03-12T07:45:21;10.70;37.30
74657;DHT22;63185;45.642;13.764;2023-03-12T07:47:48;10.90;37.20
74657;DHT22;63185;45.642;13.764;2023-03-12T07:50:14;11.00;37.20
74657;DHT22;63185;45.642;13.764;2023-03-12T07:52:40;11.10;37.00
74657;DHT22;63185;45.642;13.764;2023-03-12T07:55:07;11.20;36.90
74657;DHT22;63185;45.642;13.764;2023-03-12T07:57:33;11.20;36.40
74657;DHT22;63185;45.642;13.764;2023-03-12T07:59:58;11.20;36.40
74657;DHT22;63185;45.642;13.764;2023-03-12T08:02:24;11.20;36.20
74657;DHT22;63185;45.642;13.764;2023-03-12T08:04:49;11.20;36.20
74657;DHT22;63185;45.642;13.764;2023-03-12T08:07:15;11.40;36.30
74657;DHT22;63185;45.642;13.764;2023-03-12T08:09:41;11.50;36.10
74657;DHT22;63185;45.642;13.764;2023-03-12T08:12:07;11.60;36.10
74657;DHT22;63185;45.642;13.764;2023-03-12T08:14:34;11.70;35.70
74657;DHT22;63185;45.642;13.764;2023-03-12T08:17:00;11.60;35.50
74657;DHT22;63185;45.642;13.764;2023-03-12T08:19:26;11.80;35.90
74657;DHT22;63185;45.642;13.764;2023-03-12T08:21:52;11.80;35.90
74657;DHT22;63185;45.642;13.764;2023-03-12T08:24:20;11.90;34.90
74657;DHT22;63185;45.642;13.764;2023-03-12T08:26:46;12.10;35.40
74657;DHT22;63185;45.642;13.764;2023-03-12T08:29:11;12.20;35.40
74657;DHT22;63185;45.642;13.764;2023-03-12T08:31:37;12.40;34.90
74657;DHT22;63185;45.642;13.764;2023-03-12T08:34:03;12.30;34.50
74657;DHT22;63185;45.642;13.764;2023-03-12T08:36:29;12.30;34.40
74657;DHT22;63185;45.642;13.764;2023-03-12T08:38:55;12.60;34.90
74657;DHT22;63185;45.642;13.764;2023-03-12T08:41:20;12.70;34.20
74657;DHT22;63185;45.642;13.764;2023-03-12T08:43:46;12.90;34.40
74657;DHT22;63185;45.642;13.764;2023-03-12T08:46:12;12.80;34.70
74657;DHT22;63185;45.642;13.764;2023-03-12T08:48:38;12.80;34.40
74657;DHT22;63185;45.642;13.764;2023-03-12T08:51:05;13.10;34.40
74657;DHT22;63185;45.642;13.764;2023-03-12T08:53:33;13.20;34.80
74657;DHT22;63185;45.642;13.764;2023-03-12T08:55:59;13.20;33.80
74657;DHT22;63185;45.642;13.764;2023-03-12T08:58:25;13.30;34.00
74657;DHT22;63185;45.642;13.764;2023-03-12T09:00:51;13.40;33.80
74657;DHT22;63185;45.642;13.764;2023-03-12T09:03:17;13.40;33.40
74657;DHT22;63185;45.642;13.764;2023-03-12T09:05:44;13.40;33.40
74657;DHT22;63185;45.642;13.764;2023-03-12T09:08:10;13.30;33.40
74657;DHT22;63185;45.642;13.764;2023-03-12T09:10:36;13.40;33.00
74657;DHT22;63185;45.642;13.764;2023-03-12T09:13:03;13.50;33.20
74657;DHT22;63185;45.642;13.764;2023-03-12T09:15:29;13.50;32.90
74657;DHT22;63185;45.642;13.764;2023-03-12T09:17:55;13.60;33.40
74657;DHT22;63185;45.642;13.764;2023-03-12T09:20:22;13.60;32.60
74657;DHT22;63185;45.642;13.764;2023-03-12T09:22:47;13.70;33.30
74657;DHT22;63185;45.642;13.764;2023-03-12T09:25:14;13.90;33.70
74657;DHT22;63185;45.642;13.764;2023-03-12T09:27:45;14.10;33.30
74657;DHT22;63185;45.642;13.764;2023-03-12T09:30:13;14.30;32.90
74657;DHT22;63185;45.642;13.764;2023-03-12T09:32:40;14.60;32.20
74657;DHT22;63185;45.642;13.764;2023-03-12T09:35:06;14.70;31.20
74657;DHT22;63185;45.642;13.764;2023-03-12T09:37:32;15.00;31.00
74657;DHT22;63185;45.642;13.764;2023-03-12T09:39:58;15.10;31.50
74657;DHT22;63185;45.642;13.764;2023-03-12T09:42:31;14.90;31.30
74657;DHT22;63185;45.642;13.764;2023-03-12T09:45:02;14.80;31.60
74657;DHT22;63185;45.642;13.764;2023-03-12T09:47:32;14.60;32.30
74657;DHT22;63185;45.642;13.764;2023-03-12T09:50:20;14.80;32.60
74657;DHT22;63185;45.642;13.764;2023-03-12T09:55:22;15.10;31.30
74657;DHT22;63185;45.642;13.764;2023-03-12T09:57:49;15.30;30.90
74657;DHT22;63185;45.642;13.764;2023-03-12T10:00:21;15.30;31.20
74657;DHT22;63185;45.642;13.764;2023-03-12T10:08:23;15.20;31.20
74657;DHT22;63185;45.642;13.764;2023-03-12T10:27:28;15.50;31.30
74657;DHT22;63185;45.642;13.764;2023-03-12T10:29:55;15.50;31.30
74657;DHT22;63185;45.642;13.764;2023-03-12T10:32:26;15.50;31.40
74657;DHT22;63185;45.642;13.764;2023-03-12T10:34:58;15.30;31.40
74657;DHT22;63185;45.642;13.764;2023-03-12T10:37:32;15.30;30.90
74657;DHT22;63185;45.642;13.764;2023-03-12T10:39:59;15.20;31.10
74657;DHT22;63185;45.642;13.764;2023-03-12T10:42:28;15.10;31.10
74657;DHT22;63185;45.642;13.764;2023-03-12T10:45:00;15.10;31.20
74657;DHT22;63185;45.642;13.764;2023-03-12T10:47:43;15.30;31.30
74657;DHT22;63185;45.642;13.764;2023-03-12T10:50:21;15.40;31.40
74657;DHT22;63185;45.642;13.764;2023-03-12T10:52:49;15.60;31.10
74657;DHT22;63185;45.642;13.764;2023-03-12T10:55:25;15.60;31.60
74657;DHT22;63185;45.642;13.764;2023-03-12T10:57:52;15.70;30.90
74657;DHT22;63185;45.642;13.764;2023-03-12T11:00:20;15.60;30.60
74657;DHT22;63185;45.642;13.764;2023-03-12T11:03:17;15.70;31.30
74657;DHT22;63185;45.642;13.764;2023-03-12T11:05:52;15.80;30.90
74657;DHT22;63185;45.642;13.764;2023-03-12T11:08:30;16.00;31.00
74657;DHT22;63185;45.642;13.764;2023-03-12T11:10:58;16.00;30.20
74657;DHT22;63185;45.642;13.764;2023-03-12T11:15:53;16.00;31.20
74657;DHT22;63185;45.642;13.764;2023-03-12T11:18:33;16.20;30.80
74657;DHT22;63185;45.642;13.764;2023-03-12T11:23:35;16.30;29.80
74657;DHT22;63185;45.642;13.764;2023-03-12T11:28:48;16.50;30.00
74657;DHT22;63185;45.642;13.764;2023-03-12T11:31:36;16.60;29.60
74657;DHT22;63185;45.642;13.764;2023-03-12T11:34:17;16.90;29.80
74657;DHT22;63185;45.642;13.764;2023-03-12T11:37:27;17.10;30.00
74657;DHT22;63185;45.642;13.764;2023-03-12T11:56:11;18.60;26.80
74657;DHT22;63185;45.642;13.764;2023-03-12T12:01:57;18.50;26.80
74657;DHT22;63185;45.642;13.764;2023-03-12T12:04:58;18.30;27.00
74657;DHT22;63185;45.642;13.764;2023-03-12T12:10:33;18.20;26.70
74657;DHT22;63185;45.642;13.764;2023-03-12T12:13:54;17.70;29.10
74657;DHT22;63185;45.642;13.764;2023-03-12T12:32:26;16.60;31.70
74657;DHT22;63185;45.642;13.764;2023-03-12T12:38:01;16.30;32.10
74657;DHT22;63185;45.642;13.764;2023-03-12T12:40:34;16.30;32.90
74657;DHT22;63185;45.642;13.764;2023-03-12T12:43:19;16.30;32.60
74657;DHT22;63185;45.642;13.764;2023-03-12T12:45:51;16.40;31.70
74657;DHT22;63185;45.642;13.764;2023-03-12T12:48:21;16.50;31.90
74657;DHT22;63185;45.642;13.764;2023-03-12T12:50:51;16.20;31.30
74657;DHT22;63185;45.642;13.764;2023-03-12T12:53:31;16.10;31.70
74657;DHT22;63185;45.642;13.764;2023-03-12T12:59:04;15.80;37.50
74657;DHT22;63185;45.642;13.764;2023-03-12T13:01:33;15.60;36.90
74657;DHT22;63185;45.642;13.764;2023-03-12T13:04:04;15.30;37.00
74657;DHT22;63185;45.642;13.764;2023-03-12T13:09:45;15.60;36.50
74657;DHT22;63185;45.642;13.764;2023-03-12T13:14:50;15.10;38.30
74657;DHT22;63185;45.642;13.764;2023-03-12T13:19:51;14.80;39.10
74657;DHT22;63185;45.642;13.764;2023-03-12T13:22:26;15.10;36.20
74657;DHT22;63185;45.642;13.764;2023-03-12T13:27:28;15.40;38.70
74657;DHT22;63185;45.642;13.764;2023-03-12T13:29:54;15.10;46.90
74657;DHT22;63185;45.642;13.764;2023-03-12T13:35:06;15.30;51.10
74657;DHT22;63185;45.642;13.764;2023-03-12T13:43:14;14.80;49.20
74657;DHT22;63185;45.642;13.764;2023-03-12T13:46:03;14.20;49.20
74657;DHT22;63185;45.642;13.764;2023-03-12T13:48:33;14.20;47.70
74657;DHT22;63185;45.642;13.764;2023-03-12T13:51:26;14.30;44.70
74657;DHT22;63185;45.642;13.764;2023-03-12T13:53:54;14.20;44.70
74657;DHT22;63185;45.642;13.764;2023-03-12T13:56:30;14.20;44.20
74657;DHT22;63185;45.642;13.764;2023-03-12T13:59:02;14.40;44.90
74657;DHT22;63185;45.642;13.764;2023-03-12T14:01:38;14.60;44.50
74657;DHT22;63185;45.642;13.764;2023-03-12T14:04:16;14.90;44.90
74657;DHT22;63185;45.642;13.764;2023-03-12T14:12:12;15.00;46.00
74657;DHT22;63185;45.642;13.764;2023-03-12T14:17:30;15.10;48.20
74657;DHT22;63185;45.642;13.764;2023-03-12T14:22:29;15.50;45.50
74657;DHT22;63185;45.642;13.764;2023-03-12T14:24:58;15.30;46.00
74657;DHT22;63185;45.642;13.764;2023-03-12T14:27:30;15.10;47.10
74657;DHT22;63185;45.642;13.764;2023-03-12T14:30:20;15.40;46.80
74657;DHT22;63185;45.642;13.764;2023-03-12T14:32:45;15.00;47.70
74657;DHT22;63185;45.642;13.764;2023-03-12T14:35:28;14.80;47.00
74657;DHT22;63185;45.642;13.764;2023-03-12T14:40:41;15.40;45.40
74657;DHT22;63185;45.642;13.764;2023-03-12T14:43:28;15.30;45.90
74657;DHT22;63185;45.642;13.764;2023-03-12T14:45:56;15.60;43.50
74657;DHT22;63185;45.642;13.764;2023-03-12T14:48:28;15.90;47.20
74657;DHT22;63185;45.642;13.764;2023-03-12T14:50:55;16.10;45.90
74657;DHT22;63185;45.642;13.764;2023-03-12T14:53:26;16.40;46.10
74657;DHT22;63185;45.642;13.764;2023-03-12T14:58:34;15.20;45.00
74657;DHT22;63185;45.642;13.764;2023-03-12T15:01:05;15.60;44.70
74657;DHT22;63185;45.642;13.764;2023-03-12T15:03:39;16.20;45.10
74657;DHT22;63185;45.642;13.764;2023-03-12T15:06:32;16.40;45.00
74657;DHT22;63185;45.642;13.764;2023-03-12T15:09:01;16.70;45.30
74657;DHT22;63185;45.642;13.764;2023-03-12T15:11:29;16.40;45.30
74657;DHT22;63185;45.642;13.764;2023-03-12T15:14:21;16.70;44.80
74657;DHT22;63185;45.642;13.764;2023-03-12T15:16:46;16.80;44.20
74657;DHT22;63185;45.642;13.764;2023-03-12T15:19:17;17.60;43.10
74657;DHT22;63185;45.642;13.764;2023-03-12T15:21:45;18.20;41.60
74657;DHT22;63185;45.642;13.764;2023-03-12T15:24:12;19.00;39.80
74657;DHT22;63185;45.642;13.764;2023-03-12T15:26:38;19.60;38.70
74657;DHT22;63185;45.642;13.764;2023-03-12T15:29:17;20.20;37.70
74657;DHT22;63185;45.642;13.764;2023-03-12T15:31:52;20.40;36.80
74657;DHT22;63185;45.642;13.764;2023-03-12T15:34:46;21.20;35.70
74657;DHT22;63185;45.642;13.764;2023-03-12T15:37:29;22.00;34.80
74657;DHT22;63185;45.642;13.764;2023-03-12T15:40:05;21.70;35.60
74657;DHT22;63185;45.642;13.764;2023-03-12T15:42:40;20.90;36.30
74657;DHT22;63185;45.642;13.764;2023-03-12T15:45:24;21.50;36.50
74657;DHT22;63185;45.642;13.764;2023-03-12T15:47:53;21.60;36.30
74657;DHT22;63185;45.642;13.764;2023-03-12T15:50:41;21.40;36.60
74657;DHT22;63185;45.642;13.764;2023-03-12T15:55:37;21.90;36.20
74657;DHT22;63185;45.642;13.764;2023-03-12T15:58:27;22.50;35.30
74657;DHT22;63185;45.642;13.764;2023-03-12T16:01:05;21.80;36.50
74657;DHT22;63185;45.642;13.764;2023-03-12T16:03:31;21.50;36.70
74657;DHT22;63185;45.642;13.764;2023-03-12T16:05:57;21.90;35.70
74657;DHT22;63185;45.642;13.764;2023-03-12T16:08:37;21.30;36.90
74657;DHT22;63185;45.642;13.764;2023-03-12T16:11:05;20.50;38.30
74657;DHT22;63185;45.642;13.764;2023-03-12T16:13:34;19.50;40.90
74657;DHT22;63185;45.642;13.764;2023-03-12T16:16:01;19.50;40.60
74657;DHT22;63185;45.642;13.764;2023-03-12T16:18:27;19.10;41.80
74657;DHT22;63185;45.642;13.764;2023-03-12T16:20:53;18.60;42.50
74657;DHT22;63185;45.642;13.764;2023-03-12T16:23:19;18.80;42.30
74657;DHT22;63185;45.642;13.764;2023-03-12T16:25:48;18.90;41.80
74657;DHT22;63185;45.642;13.764;2023-03-12T16:28:15;18.80;42.70
74657;DHT22;63185;45.642;13.764;2023-03-12T16:30:41;19.20;42.80
74657;DHT22;63185;45.642;13.764;2023-03-12T16:33:12;18.60;44.00
74657;DHT22;63185;45.642;13.764;2023-03-12T16:35:38;18.00;45.50
74657;DHT22;63185;45.642;13.764;2023-03-12T16:38:04;17.60;46.90
74657;DHT22;63185;45.642;13.764;2023-03-12T16:40:32;17.60;47.00
74657;DHT22;63185;45.642;13.764;2023-03-12T16:42:59;17.00;49.00
74657;DHT22;63185;45.642;13.764;2023-03-12T16:45:29;16.50;50.60
74657;DHT22;63185;45.642;13.764;2023-03-12T16:48:01;16.50;50.40
74657;DHT22;63185;45.642;13.764;2023-03-12T16:50:28;15.80;53.20
74657;DHT22;63185;45.642;13.764;2023-03-12T16:52:56;15.60;54.50
74657;DHT22;63185;45.642;13.764;2023-03-12T16:55:25;15.30;55.50
74657;DHT22;63185;45.642;13.764;2023-03-12T16:57:57;15.00;55.70
74657;DHT22;63185;45.642;13.764;2023-03-12T17:00:27;14.80;55.60
74657;DHT22;63185;45.642;13.764;2023-03-12T17:02:54;14.60;56.00
74657;DHT22;63185;45.642;13.764;2023-03-12T17:05:26;14.40;56.30
74657;DHT22;63185;45.642;13.764;2023-03-12T17:07:53;14.00;57.80
74657;DHT22;63185;45.642;13.764;2023-03-12T17:10:20;13.60;59.20
74657;DHT22;63185;45.642;13.764;2023-03-12T17:12:46;13.30;60.90
74657;DHT22;63185;45.642;13.764;2023-03-12T17:15:21;13.20;61.40
74657;DHT22;63185;45.642;13.764;2023-03-12T17:17:50;13.00;62.00
74657;DHT22;63185;45.642;13.764;2023-03-12T17:20:18;13.00;62.50
74657;DHT22;63185;45.642;13.764;2023-03-12T17:22:44;13.00;62.40
74657;DHT22;63185;45.642;13.764;2023-03-12T17:25:25;13.00;62.50
74657;DHT22;63185;45.642;13.764;2023-03-12T17:27:52;13.00;62.40
74657;DHT22;63185;45.642;13.764;2023-03-12T17:30:18;13.00;62.60
74657;DHT22;63185;45.642;13.764;2023-03-12T17:32:46;12.90;62.90
74657;DHT22;63185;45.642;13.764;2023-03-12T17:35:11;12.90;63.00